createdAt,value
2022-10-08T00:01:07.988Z,16.33
2022-10-08T00:03:36.438Z,14.93
2022-10-08T00:06:03.583Z,16.90
2022-10-08T00:08:32.278Z,15.20
2022-10-08T00:11:03.008Z,15.38
2022-10-08T00:13:45.350Z,16.10
2022-10-08T00:16:17.784Z,17.50
2022-10-08T00:18:48.226Z,16.88
2022-10-08T00:21:22.855Z,21.80
2022-10-08T00:23:50.841Z,14.90
2022-10-08T00:26:20.499Z,15.35
2022-10-08T00:28:52.379Z,14.98
2022-10-08T00:31:34.877Z,13.88
2022-10-08T00:34:05.968Z,14.43
2022-10-08T00:36:43.503Z,15.27
2022-10-08T00:39:18.313Z,15.43
2022-10-08T00:41:56.149Z,14.90
2022-10-08T00:44:45.496Z,17.38
2022-10-08T00:47:30.007Z,13.98
2022-10-08T00:50:01.327Z,15.60
2022-10-08T00:52:37.180Z,12.75
2022-10-08T00:55:09.448Z,13.77
2022-10-08T00:57:40.037Z,13.80
2022-10-08T01:00:18.236Z,13.15
2022-10-08T01:02:54.562Z,13.90
2022-10-08T01:05:41.960Z,12.93
2022-10-08T01:08:35.548Z,14.75
2022-10-08T01:11:08.668Z,11.88
2022-10-08T01:14:08.028Z,13.00
2022-10-08T01:16:40.907Z,12.90
2022-10-08T01:19:38.304Z,12.80
2022-10-08T01:22:18.093Z,11.77
2022-10-08T01:25:12.071Z,11.55
2022-10-08T01:27:44.047Z,13.00
2022-10-08T01:30:14.636Z,11.63
2022-10-08T01:32:51.859Z,11.55
2022-10-08T01:35:21.381Z,12.85
2022-10-08T01:37:49.136Z,12.10
2022-10-08T01:40:20.775Z,10.98
2022-10-08T01:42:50.181Z,11.57
2022-10-08T01:45:19.719Z,11.35
2022-10-08T01:47:48.018Z,10.65
2022-10-08T01:50:18.358Z,11.90
2022-10-08T01:52:49.121Z,12.27
2022-10-08T01:55:20.385Z,12.57
2022-10-08T01:57:48.120Z,12.93
2022-10-08T02:00:15.709Z,10.65
2022-10-08T02:02:44.039Z,11.65
2022-10-08T02:05:11.850Z,11.50
2022-10-08T02:07:42.260Z,10.10
2022-10-08T02:10:14.409Z,12.52
2022-10-08T02:12:42.354Z,14.02
2022-10-08T02:15:11.817Z,13.50
2022-10-08T02:17:57.362Z,12.05
2022-10-08T02:20:33.213Z,12.43
2022-10-08T02:23:04.734Z,12.13
2022-10-08T02:25:52.186Z,10.63
2022-10-08T02:28:28.881Z,11.38
2022-10-08T02:30:58.606Z,11.65
2022-10-08T02:33:33.827Z,13.25
2022-10-08T02:36:02.711Z,11.60
2022-10-08T02:38:33.879Z,11.50
2022-10-08T02:41:03.822Z,11.60
2022-10-08T02:43:33.422Z,12.00
2022-10-08T02:46:02.266Z,10.68
2022-10-08T02:48:33.255Z,11.75
2022-10-08T02:51:12.490Z,13.82
2022-10-08T02:53:40.669Z,13.18
2022-10-08T02:56:27.538Z,12.43
2022-10-08T02:58:55.615Z,11.00
2022-10-08T03:01:28.484Z,12.73
2022-10-08T03:04:07.295Z,12.43
2022-10-08T03:06:36.539Z,10.80
2022-10-08T03:09:06.519Z,9.65
2022-10-08T03:11:34.609Z,12.10
2022-10-08T03:14:04.121Z,11.93
2022-10-08T03:16:49.437Z,10.45
2022-10-08T03:19:17.577Z,10.50
2022-10-08T03:21:45.783Z,11.00
2022-10-08T03:24:13.654Z,10.32
2022-10-08T03:26:40.830Z,10.70
2022-10-08T03:29:08.117Z,10.00
2022-10-08T03:31:35.446Z,10.65
2022-10-08T03:34:02.602Z,10.60
2022-10-08T03:36:30.202Z,9.40
2022-10-08T03:38:57.326Z,8.40
2022-10-08T03:41:25.494Z,8.32
2022-10-08T03:43:52.578Z,8.70
2022-10-08T03:46:19.775Z,9.85
2022-10-08T03:48:49.272Z,10.35
2022-10-08T03:51:16.997Z,9.18
2022-10-08T03:53:44.252Z,8.45
2022-10-08T03:56:15.544Z,7.60
2022-10-08T03:58:43.149Z,9.85
2022-10-08T04:01:14.431Z,8.52
2022-10-08T04:03:41.629Z,9.20
2022-10-08T04:06:09.058Z,8.02
2022-10-08T04:08:36.570Z,9.60
2022-10-08T04:11:07.617Z,7.35
2022-10-08T04:13:35.208Z,8.88
2022-10-08T04:16:03.189Z,9.70
2022-10-08T04:18:30.393Z,8.43
2022-10-08T04:21:01.396Z,11.73
2022-10-08T04:23:29.073Z,9.27
2022-10-08T04:25:56.761Z,7.05
2022-10-08T04:28:24.041Z,7.75
2022-10-08T04:31:04.640Z,9.27
2022-10-08T04:33:32.599Z,8.07
2022-10-08T04:36:00.423Z,7.28
2022-10-08T04:38:28.200Z,8.63
2022-10-08T04:41:13.974Z,9.18
2022-10-08T04:43:41.604Z,7.28
2022-10-08T04:46:09.996Z,9.00
2022-10-08T04:48:37.318Z,8.50
2022-10-08T04:51:10.107Z,8.00
2022-10-08T04:53:37.833Z,10.68
2022-10-08T04:56:09.217Z,9.13
2022-10-08T04:58:36.351Z,9.93
2022-10-08T05:01:04.785Z,8.05
2022-10-08T05:03:32.305Z,7.80
2022-10-08T05:05:59.435Z,8.35
2022-10-08T05:08:26.596Z,11.45
2022-10-08T05:10:53.710Z,9.18
2022-10-08T05:13:20.832Z,8.02
2022-10-08T05:15:48.698Z,6.55
2022-10-08T05:18:15.885Z,11.35
2022-10-08T05:20:42.988Z,8.32
2022-10-08T05:23:10.068Z,8.73
2022-10-08T05:25:37.248Z,7.05
2022-10-08T05:28:05.083Z,6.57
2022-10-08T05:30:32.298Z,7.13
2022-10-08T05:32:59.416Z,8.38
2022-10-08T05:35:26.621Z,10.30
2022-10-08T05:37:53.764Z,8.63
2022-10-08T05:40:21.003Z,8.38
2022-10-08T05:42:48.416Z,11.43
2022-10-08T05:45:15.777Z,7.55
2022-10-08T05:47:42.867Z,6.78
2022-10-08T05:50:10.088Z,7.50
2022-10-08T05:52:37.211Z,6.13
2022-10-08T05:55:04.427Z,7.70
2022-10-08T05:57:31.510Z,8.50
2022-10-08T05:59:58.731Z,9.70
2022-10-08T06:02:25.860Z,7.03
2022-10-08T06:04:53.094Z,8.98
2022-10-08T06:07:20.240Z,8.52
2022-10-08T06:09:47.329Z,7.97
2022-10-08T06:12:14.479Z,8.95
2022-10-08T06:14:41.563Z,7.38
2022-10-08T06:17:08.864Z,9.30
2022-10-08T06:19:37.248Z,7.03
2022-10-08T06:22:05.118Z,10.77
2022-10-08T06:24:32.262Z,7.20
2022-10-08T06:26:59.339Z,6.32
2022-10-08T06:29:26.515Z,6.93
2022-10-08T06:31:53.803Z,9.45
2022-10-08T06:34:20.998Z,6.38
2022-10-08T06:36:48.154Z,8.30
2022-10-08T06:39:17.844Z,7.55
2022-10-08T06:41:45.029Z,6.50
2022-10-08T06:44:13.656Z,8.05
2022-10-08T06:46:40.921Z,8.90
2022-10-08T06:49:08.067Z,6.40
2022-10-08T06:51:35.290Z,7.22
2022-10-08T06:54:07.507Z,6.75
2022-10-08T06:56:36.173Z,6.82
2022-10-08T06:59:04.030Z,7.10
2022-10-08T07:01:33.618Z,5.80
2022-10-08T07:04:01.646Z,6.38
2022-10-08T07:06:28.991Z,6.22
2022-10-08T07:08:56.919Z,6.97
2022-10-08T07:11:24.954Z,10.18
2022-10-08T07:14:03.850Z,13.45
2022-10-08T07:16:40.510Z,8.73
2022-10-08T07:19:10.111Z,9.25
2022-10-08T07:21:39.651Z,5.07
2022-10-08T07:24:08.359Z,5.28
2022-10-08T07:26:41.415Z,6.63
2022-10-08T07:29:14.830Z,10.60
2022-10-08T07:31:49.424Z,5.78
2022-10-08T07:34:19.545Z,6.80
2022-10-08T07:36:51.804Z,10.02
2022-10-08T07:39:36.396Z,9.85
2022-10-08T07:42:11.292Z,11.32
2022-10-08T07:44:47.961Z,7.50
2022-10-08T07:47:26.793Z,9.57
2022-10-08T07:49:56.182Z,7.55
2022-10-08T07:52:26.579Z,9.38
2022-10-08T07:55:00.246Z,7.28
2022-10-08T07:57:39.026Z,8.32
2022-10-08T08:00:15.241Z,7.43
2022-10-08T08:02:57.349Z,6.75
2022-10-08T08:05:27.103Z,9.73
2022-10-08T08:08:00.682Z,7.35
2022-10-08T08:10:33.315Z,5.65
2022-10-08T08:13:05.356Z,7.97
2022-10-08T08:15:32.529Z,6.85
2022-10-08T08:18:09.889Z,8.73
2022-10-08T08:20:45.035Z,6.03
2022-10-08T08:23:12.167Z,8.13
2022-10-08T08:25:39.561Z,7.55
2022-10-08T08:28:06.862Z,5.65
2022-10-08T08:30:34.150Z,9.90
2022-10-08T08:33:01.569Z,6.95
2022-10-08T08:35:28.787Z,7.03
2022-10-08T08:37:56.037Z,8.02
2022-10-08T08:40:23.462Z,8.82
2022-10-08T08:42:54.733Z,9.27
2022-10-08T08:45:45.844Z,6.50
2022-10-08T08:48:22.870Z,10.50
2022-10-08T08:50:51.538Z,8.63
2022-10-08T08:53:20.228Z,6.28
2022-10-08T08:55:50.288Z,7.30
2022-10-08T08:58:21.340Z,6.35
2022-10-08T09:00:55.183Z,8.98
2022-10-08T09:03:22.953Z,6.85
2022-10-08T09:05:52.137Z,5.43
2022-10-08T09:08:34.500Z,11.45
2022-10-08T09:11:13.205Z,6.22
2022-10-08T09:13:52.350Z,7.30
2022-10-08T09:16:29.256Z,7.85
2022-10-08T09:18:59.517Z,9.35
2022-10-08T09:21:55.999Z,7.30
2022-10-08T09:24:23.339Z,10.00
2022-10-08T09:26:53.667Z,7.13
2022-10-08T09:29:42.491Z,10.65
2022-10-08T09:32:29.178Z,10.45
2022-10-08T09:35:16.028Z,7.43
2022-10-08T09:37:56.420Z,8.55
2022-10-08T09:40:33.465Z,8.77
2022-10-08T09:43:19.819Z,8.63
2022-10-08T09:48:42.362Z,6.15
2022-10-08T09:51:24.923Z,10.05
2022-10-08T09:54:06.756Z,7.15
2022-10-08T09:56:38.533Z,9.23
2022-10-08T09:59:33.507Z,8.38
2022-10-08T10:02:13.127Z,11.52
2022-10-08T10:04:45.882Z,9.50
2022-10-08T10:07:28.756Z,9.45
2022-10-08T10:10:00.827Z,10.63
2022-10-08T10:12:36.413Z,10.43
2022-10-08T10:15:06.969Z,9.57
2022-10-08T10:23:32.807Z,9.63
2022-10-08T10:26:46.116Z,9.18
2022-10-08T10:29:25.028Z,7.35
2022-10-08T10:32:31.711Z,12.63
2022-10-08T10:35:22.772Z,8.02
2022-10-08T10:38:16.710Z,9.85
2022-10-08T10:40:50.764Z,7.72
2022-10-08T10:43:20.229Z,12.07
2022-10-08T10:46:32.040Z,10.38
2022-10-08T10:49:00.477Z,7.43
2022-10-08T10:51:51.362Z,10.75
2022-10-08T10:54:36.750Z,8.90
2022-10-08T10:57:16.108Z,10.50
2022-10-08T10:59:48.891Z,6.70
2022-10-08T11:02:34.169Z,9.80
2022-10-08T11:05:13.654Z,7.47
2022-10-08T11:08:02.969Z,12.13
2022-10-08T11:10:33.323Z,9.73
2022-10-08T11:13:27.548Z,9.50
2022-10-08T11:16:30.843Z,11.00
2022-10-08T11:19:12.776Z,8.73
2022-10-08T11:22:04.293Z,9.02
2022-10-08T11:25:20.845Z,12.23
2022-10-08T11:28:01.427Z,8.23
2022-10-08T11:30:44.355Z,10.55
2022-10-08T11:33:20.715Z,9.85
2022-10-08T11:35:52.154Z,9.70
2022-10-08T11:38:45.652Z,12.40
2022-10-08T11:41:15.893Z,9.68
2022-10-08T11:44:02.726Z,12.75
2022-10-08T11:49:27.275Z,10.30
2022-10-08T11:52:06.432Z,10.95
2022-10-08T11:54:51.606Z,11.00
2022-10-08T12:00:41.425Z,10.07
2022-10-08T12:03:39.013Z,7.57
2022-10-08T12:06:22.478Z,10.93
2022-10-08T12:09:01.705Z,7.20
2022-10-08T12:11:52.783Z,13.23
2022-10-08T12:14:41.209Z,12.07
2022-10-08T12:17:22.553Z,9.98
2022-10-08T12:20:16.743Z,17.33
2022-10-08T12:23:04.738Z,10.82
2022-10-08T12:26:08.893Z,11.27
2022-10-08T12:28:52.358Z,11.93
2022-10-08T12:32:33.283Z,8.77
2022-10-08T12:35:15.083Z,6.47
2022-10-08T12:41:25.923Z,12.77
2022-10-08T12:50:59.719Z,9.25
2022-10-08T12:53:52.081Z,9.30
2022-10-08T12:56:40.174Z,7.45
2022-10-08T12:59:17.107Z,10.75
2022-10-08T13:07:36.456Z,10.00
2022-10-08T13:10:17.276Z,12.27
2022-10-08T13:12:46.156Z,9.30
2022-10-08T13:15:22.821Z,13.60
2022-10-08T13:17:50.470Z,11.60
2022-10-08T13:20:19.513Z,8.63
2022-10-08T13:22:46.691Z,29.58
2022-10-08T13:25:32.371Z,9.73
2022-10-08T13:28:16.382Z,10.23
2022-10-08T13:30:46.641Z,10.93
2022-10-08T13:33:21.674Z,10.75
2022-10-08T13:35:56.396Z,9.25
2022-10-08T13:38:34.486Z,10.43
2022-10-08T13:41:05.950Z,13.25
2022-10-08T13:43:36.241Z,11.57
2022-10-08T13:46:03.445Z,15.32
2022-10-08T13:48:30.783Z,17.17
2022-10-08T13:50:58.484Z,14.63
2022-10-08T13:53:26.305Z,15.30
2022-10-08T13:55:53.435Z,12.80
2022-10-08T13:58:21.071Z,13.13
2022-10-08T14:00:49.144Z,13.32
2022-10-08T14:03:16.800Z,13.30
2022-10-08T14:05:47.681Z,14.70
2022-10-08T14:08:24.145Z,12.80
2022-10-08T14:10:57.467Z,11.35
2022-10-08T14:13:24.838Z,15.77
2022-10-08T14:15:52.239Z,11.30
2022-10-08T14:18:19.577Z,21.23
2022-10-08T14:20:46.767Z,14.93
2022-10-08T14:23:14.406Z,15.38
2022-10-08T14:25:41.810Z,15.23
2022-10-08T14:28:09.123Z,13.32
2022-10-08T14:30:36.356Z,14.38
2022-10-08T14:33:07.649Z,14.13
2022-10-08T14:35:37.716Z,14.87
2022-10-08T14:38:04.848Z,13.82
2022-10-08T14:40:32.181Z,13.35
2022-10-08T14:42:59.797Z,14.40
2022-10-08T14:45:27.008Z,15.13
2022-10-08T14:47:54.269Z,20.38
2022-10-08T14:50:22.185Z,16.40
2022-10-08T14:52:50.189Z,14.50
2022-10-08T14:55:17.881Z,16.75
2022-10-08T14:57:45.289Z,16.20
2022-10-08T15:00:13.819Z,15.38
2022-10-08T15:02:43.146Z,13.35
2022-10-08T15:05:10.352Z,17.55
2022-10-08T15:07:37.542Z,14.70
2022-10-08T15:10:05.596Z,13.82
2022-10-08T15:12:33.187Z,16.52
2022-10-08T15:15:00.307Z,15.55
2022-10-08T15:17:27.461Z,12.93
2022-10-08T15:19:54.771Z,15.65
2022-10-08T15:22:22.005Z,14.27
2022-10-08T15:24:49.179Z,16.15
2022-10-08T15:27:20.655Z,16.65
2022-10-08T15:29:48.268Z,14.77
2022-10-08T15:32:15.986Z,14.65
2022-10-08T15:34:43.137Z,18.40
2022-10-08T15:37:10.255Z,20.27
2022-10-08T15:39:37.476Z,11.48
2022-10-08T15:42:04.709Z,13.27
2022-10-08T15:44:32.016Z,14.48
2022-10-08T15:47:06.616Z,13.25
2022-10-08T15:49:36.866Z,16.30
2022-10-08T15:52:04.919Z,16.10
2022-10-08T15:54:32.040Z,11.65
2022-10-08T15:56:59.169Z,13.98
2022-10-08T15:59:26.375Z,15.52
2022-10-08T16:01:53.515Z,11.63
2022-10-08T16:04:20.842Z,16.17
2022-10-08T16:06:48.085Z,13.73
2022-10-08T16:09:16.119Z,15.70
2022-10-08T16:11:43.859Z,13.98
2022-10-08T16:14:12.491Z,15.48
2022-10-08T16:16:40.410Z,11.75
2022-10-08T16:19:17.998Z,16.35
2022-10-08T16:21:46.577Z,13.13
2022-10-08T16:24:13.849Z,15.57
2022-10-08T16:26:41.996Z,14.38
2022-10-08T16:29:11.173Z,17.45
2022-10-08T16:31:39.020Z,13.82
2022-10-08T16:34:07.351Z,15.38
2022-10-08T16:36:36.481Z,13.95
2022-10-08T16:39:04.920Z,15.40
2022-10-08T16:41:32.967Z,17.50
2022-10-08T16:44:00.851Z,16.77
2022-10-08T16:46:29.735Z,18.65
2022-10-08T16:48:58.212Z,16.33
2022-10-08T16:51:26.175Z,17.85
2022-10-08T16:53:54.314Z,18.00
2022-10-08T16:56:22.356Z,14.88
2022-10-08T16:58:53.513Z,18.77
2022-10-08T17:01:21.273Z,19.35
2022-10-08T17:03:49.154Z,19.25
2022-10-08T17:06:17.436Z,15.38
2022-10-08T17:08:44.564Z,16.75
2022-10-08T17:11:12.227Z,16.20
2022-10-08T17:13:43.564Z,22.38
2022-10-08T17:16:11.550Z,20.85
2022-10-08T17:18:38.949Z,18.60
2022-10-08T17:21:06.982Z,19.17
2022-10-08T17:23:37.973Z,17.13
2022-10-08T17:26:09.220Z,21.63
2022-10-08T17:28:38.907Z,20.65
2022-10-08T17:31:07.414Z,17.42
2022-10-08T17:33:36.140Z,16.70
2022-10-08T17:36:05.976Z,21.73
2022-10-08T17:38:33.885Z,17.83
2022-10-08T17:41:01.031Z,15.48
2022-10-08T17:43:28.347Z,13.50
2022-10-08T17:45:55.491Z,18.50
2022-10-08T17:48:22.715Z,15.88
2022-10-08T17:50:49.876Z,13.55
2022-10-08T17:53:17.000Z,16.48
2022-10-08T17:55:44.199Z,15.35
2022-10-08T17:58:11.502Z,15.63
2022-10-08T18:00:38.686Z,15.85
2022-10-08T18:03:07.143Z,12.77
2022-10-08T18:05:34.292Z,12.70
2022-10-08T18:08:01.514Z,10.45
2022-10-08T18:10:28.648Z,16.63
2022-10-08T18:12:56.201Z,12.70
2022-10-08T18:15:24.029Z,14.70
2022-10-08T18:17:51.250Z,11.23
2022-10-08T18:20:18.549Z,12.35
2022-10-08T18:22:45.990Z,11.68
2022-10-08T18:25:13.244Z,17.27
2022-10-08T18:27:40.414Z,17.27
2022-10-08T18:30:07.926Z,11.23
2022-10-08T18:32:35.112Z,8.77
2022-10-08T18:35:02.226Z,11.38
2022-10-08T18:37:29.451Z,12.02
2022-10-08T18:39:56.635Z,10.45
2022-10-08T18:42:23.883Z,10.25
2022-10-08T18:44:51.042Z,7.75
2022-10-08T18:47:18.325Z,8.80
2022-10-08T18:49:45.727Z,8.90
2022-10-08T18:52:12.987Z,9.30
2022-10-08T18:54:40.168Z,7.63
2022-10-08T18:57:07.328Z,10.77
2022-10-08T18:59:34.963Z,8.57
2022-10-08T19:02:02.423Z,9.50
2022-10-08T19:04:29.866Z,10.30
2022-10-08T19:09:26.981Z,12.00
2022-10-08T19:11:54.596Z,10.88
2022-10-08T19:14:22.996Z,11.93
2022-10-08T19:16:50.494Z,12.50
2022-10-08T19:19:21.900Z,13.32
2022-10-08T19:21:49.342Z,9.10
2022-10-08T19:24:21.068Z,7.75
2022-10-08T19:26:48.684Z,10.02
2022-10-08T19:29:18.510Z,8.50
2022-10-08T19:31:49.961Z,8.52
2022-10-08T19:34:18.933Z,9.88
2022-10-08T19:36:46.218Z,9.02
2022-10-08T19:39:14.963Z,8.75
2022-10-08T19:41:42.561Z,7.43
2022-10-08T19:44:10.079Z,10.85
2022-10-08T19:46:37.308Z,11.15
2022-10-08T19:49:05.487Z,8.98
2022-10-08T19:51:33.505Z,13.75
2022-10-08T19:54:01.206Z,16.60
2022-10-08T19:56:29.115Z,15.30
2022-10-08T19:58:56.200Z,13.27
2022-10-08T20:01:24.929Z,12.20
2022-10-08T20:03:56.377Z,8.95
2022-10-08T20:06:25.230Z,8.55
2022-10-08T20:08:56.357Z,10.30
2022-10-08T20:11:23.771Z,10.68
2022-10-08T20:13:51.810Z,9.38
2022-10-08T20:16:28.849Z,12.02
2022-10-08T20:19:00.853Z,12.70
2022-10-08T20:21:28.679Z,14.02
2022-10-08T20:23:55.995Z,15.40
2022-10-08T20:26:24.983Z,9.77
2022-10-08T20:28:53.698Z,10.85
2022-10-08T20:31:25.124Z,9.02
2022-10-08T20:33:56.966Z,12.05
2022-10-08T20:36:24.171Z,11.25
2022-10-08T20:38:51.631Z,11.15
2022-10-08T20:41:19.210Z,10.98
2022-10-08T20:43:46.398Z,12.07
2022-10-08T20:46:14.574Z,9.02
2022-10-08T20:48:42.660Z,8.00
2022-10-08T20:51:14.069Z,9.98
2022-10-08T20:53:41.542Z,9.73
2022-10-08T20:56:09.760Z,8.48
2022-10-08T20:58:37.131Z,11.35
2022-10-08T21:01:11.966Z,8.35
2022-10-08T21:03:39.807Z,8.20
2022-10-08T21:06:07.658Z,9.50
2022-10-08T21:08:41.780Z,9.32
2022-10-08T21:11:10.081Z,16.53
2022-10-08T21:13:37.319Z,10.40
2022-10-08T21:16:05.989Z,9.32
2022-10-08T21:18:33.459Z,8.57
2022-10-08T21:21:05.006Z,10.30
2022-10-08T21:23:32.163Z,11.45
2022-10-08T21:26:06.799Z,8.10
2022-10-08T21:28:34.481Z,8.60
2022-10-08T21:31:04.097Z,8.30
2022-10-08T21:33:31.906Z,9.73
2022-10-08T21:35:59.091Z,11.55
2022-10-08T21:38:26.181Z,9.95
2022-10-08T21:40:58.753Z,8.90
2022-10-08T21:43:25.994Z,9.50
2022-10-08T21:46:00.569Z,10.32
2022-10-08T21:48:28.464Z,10.60
2022-10-08T21:50:59.847Z,7.75
2022-10-08T21:53:27.581Z,8.00
2022-10-08T21:55:58.563Z,10.30
2022-10-08T21:58:26.323Z,7.15
2022-10-08T22:00:54.374Z,6.60
2022-10-08T22:03:22.147Z,6.78
2022-10-08T22:05:52.287Z,9.23
2022-10-08T22:08:19.717Z,10.10
2022-10-08T22:10:47.053Z,8.30
2022-10-08T22:13:14.252Z,8.55
2022-10-08T22:15:50.304Z,7.38
2022-10-08T22:18:17.527Z,7.35
2022-10-08T22:20:44.656Z,7.43
2022-10-08T22:23:11.730Z,7.22
2022-10-08T22:25:38.931Z,9.00
2022-10-08T22:28:06.058Z,4.88
2022-10-08T22:30:36.854Z,7.15
2022-10-08T22:33:04.051Z,6.38
2022-10-08T22:35:34.411Z,5.18
2022-10-08T22:38:01.643Z,6.70
2022-10-08T22:40:28.830Z,8.43
2022-10-08T22:42:55.891Z,8.57
2022-10-08T22:45:23.417Z,10.95
2022-10-08T22:47:50.809Z,6.60
2022-10-08T22:50:18.316Z,6.47
2022-10-08T22:52:46.368Z,6.05
2022-10-08T22:55:14.606Z,13.20
2022-10-08T22:57:41.710Z,5.97
2022-10-08T23:00:09.105Z,6.47
2022-10-08T23:02:36.574Z,7.32
2022-10-08T23:05:04.094Z,5.47
2022-10-08T23:07:31.210Z,8.25
2022-10-08T23:09:58.309Z,6.28
2022-10-08T23:12:25.549Z,6.78
2022-10-08T23:14:52.623Z,6.15
2022-10-08T23:17:19.730Z,8.55
2022-10-08T23:19:46.799Z,6.32
2022-10-08T23:22:13.926Z,6.43
2022-10-08T23:24:41.003Z,5.40
2022-10-08T23:27:09.756Z,6.78
2022-10-08T23:29:37.026Z,5.38
2022-10-08T23:32:04.201Z,6.22
2022-10-08T23:34:31.376Z,5.57
2022-10-08T23:36:58.485Z,8.02
2022-10-08T23:39:25.691Z,7.93
2022-10-08T23:41:52.810Z,6.63
2022-10-08T23:44:19.918Z,11.23
2022-10-08T23:46:47.138Z,4.20
2022-10-08T23:49:14.235Z,8.85
2022-10-08T23:51:41.361Z,7.40
2022-10-08T23:54:08.598Z,5.57
2022-10-08T23:56:35.790Z,5.68
2022-10-08T23:59:02.876Z,5.97
